Henderson, New York
Current Conditions -  °F | °C
As of 2:56 PM on Monday 24 Nov 2014 (Local Time) from KART Reporting Station
Broken Clouds Broken Clouds  
Wind Chill: 70°   Ceiling: 10000
Heat Index: 70°   Visibility: 10mi
Dew Point: 48°   Wind: 14mph
Humidity: 46%   Direction: 190°S
Pressure: 29.26"   Gusts: 28mph
Location:  43.85°N, 76.18°W
Report Text: KART 241956Z AUTO 19012G24KT 10SM SCT075 BKN100 21/09 A2926 RMK AO2 PK WND 20026/1905 SLP906 T02110089
Loading
Personal Weather Stations






























Interactive Weather Map New forecast layout! Learn more

10-Day Weather Forecast

Advertisements
Track Severe Weather on mobile